createdAt,value
2019-05-12T00:01:19.735Z,66.21
2019-05-12T00:04:28.279Z,66.86
2019-05-12T00:07:38.200Z,67.14
2019-05-12T00:10:47.863Z,66.98
2019-05-12T00:14:08.653Z,67.04
2019-05-12T00:17:28.447Z,67.40
2019-05-12T00:20:38.609Z,67.58
2019-05-12T00:24:05.085Z,67.63
2019-05-12T00:27:17.833Z,67.90
2019-05-12T00:30:42.507Z,68.24
2019-05-12T00:33:51.013Z,67.99
2019-05-12T00:36:59.862Z,68.10
2019-05-12T00:40:09.439Z,68.26
2019-05-12T00:43:18.841Z,68.37
2019-05-12T00:46:27.941Z,68.13
2019-05-12T00:49:37.907Z,68.29
2019-05-12T00:52:48.836Z,68.31
2019-05-12T00:56:08.490Z,67.79
2019-05-12T00:59:19.102Z,67.86
2019-05-12T01:02:28.663Z,67.76
2019-05-12T01:05:38.373Z,67.76
2019-05-12T01:08:48.384Z,67.96
2019-05-12T01:11:58.781Z,68.10
2019-05-12T01:15:08.365Z,68.01
2019-05-12T01:18:28.050Z,68.29
2019-05-12T01:21:37.739Z,68.26
2019-05-12T01:24:57.824Z,68.01
2019-05-12T01:28:08.105Z,67.82
2019-05-12T01:31:18.671Z,68.23
2019-05-12T01:34:27.886Z,68.52
2019-05-12T01:37:38.305Z,68.45
2019-05-12T01:40:47.884Z,68.64
2019-05-12T01:43:58.439Z,68.60
2019-05-12T01:47:08.374Z,68.85
2019-05-12T01:50:28.252Z,68.91
2019-05-12T01:53:37.884Z,69.16
2019-05-12T01:56:58.634Z,68.73
2019-05-12T02:00:11.420Z,68.69
2019-05-12T02:03:20.076Z,68.71
2019-05-12T02:06:29.284Z,69.10
2019-05-12T02:09:38.676Z,69.50
2019-05-12T02:12:59.466Z,69.64
2019-05-12T02:16:08.337Z,70.19
2019-05-12T02:19:17.857Z,70.21
2019-05-12T02:22:27.862Z,70.22
2019-05-12T02:25:48.345Z,70.14
2019-05-12T02:28:58.609Z,70.11
2019-05-12T02:32:07.364Z,70.07
2019-05-12T02:35:16.411Z,69.36
2019-05-12T02:38:25.368Z,69.98
2019-05-12T02:41:44.940Z,70.09
2019-05-12T02:44:55.175Z,70.81
2019-05-12T02:48:05.218Z,70.85
2019-05-12T02:51:25.073Z,70.85
2019-05-12T02:54:50.088Z,70.94
2019-05-12T02:57:45.993Z,70.64
2019-05-12T03:00:56.211Z,70.67
2019-05-12T03:04:16.727Z,70.62
2019-05-12T03:07:28.176Z,70.24
2019-05-12T03:10:38.461Z,70.70
2019-05-12T03:13:46.969Z,71.01
2019-05-12T03:16:55.582Z,70.87
2019-05-12T03:20:15.272Z,70.73
2019-05-12T03:23:24.912Z,70.99
2019-05-12T03:26:45.019Z,70.83
2019-05-12T03:29:55.206Z,70.26
2019-05-12T03:33:09.274Z,70.75
2019-05-12T03:36:18.093Z,70.64
2019-05-12T03:39:25.163Z,70.50
2019-05-12T03:42:35.424Z,70.62
2019-05-12T03:45:45.431Z,70.68
2019-05-12T03:48:55.592Z,70.96
2019-05-12T03:52:15.472Z,71.03
2019-05-12T03:55:35.512Z,70.62
2019-05-12T03:58:34.969Z,70.02
2019-05-12T04:01:45.090Z,69.34
2019-05-12T04:04:55.459Z,70.05
2019-05-12T04:08:05.392Z,70.19
2019-05-12T04:11:14.883Z,70.32
2019-05-12T04:14:25.287Z,70.26
2019-05-12T04:17:35.007Z,69.95
2019-05-12T04:20:45.194Z,69.79
2019-05-12T04:23:55.035Z,70.54
2019-05-12T04:27:05.384Z,70.52
2019-05-12T04:30:14.723Z,70.12
2019-05-12T04:33:34.692Z,69.90
2019-05-12T04:36:44.966Z,69.94
2019-05-12T04:39:55.453Z,69.28
2019-05-12T04:43:05.941Z,69.49
2019-05-12T04:46:14.778Z,69.39
2019-05-12T04:49:25.105Z,69.47
2019-05-12T04:52:35.170Z,68.95
2019-05-12T04:55:44.737Z,68.63
2019-05-12T04:58:54.548Z,68.89
2019-05-12T05:02:05.472Z,68.59
2019-05-12T05:05:15.745Z,69.05
2019-05-12T05:08:24.613Z,68.88
2019-05-12T05:11:34.380Z,68.58
2019-05-12T05:14:44.565Z,67.93
2019-05-12T05:17:54.507Z,67.46
2019-05-12T05:21:04.664Z,66.70
2019-05-12T05:24:14.220Z,66.19
2019-05-12T05:27:24.734Z,65.31
2019-05-12T05:30:44.271Z,64.04
2019-05-12T05:33:53.668Z,62.63
2019-05-12T05:37:02.635Z,60.53
2019-05-12T05:40:13.883Z,59.17
2019-05-12T05:43:24.024Z,58.18
2019-05-12T05:46:33.679Z,56.96
2019-05-12T05:49:43.412Z,55.30
2019-05-12T05:52:54.131Z,54.05
2019-05-12T05:56:04.045Z,54.33
2019-05-12T05:59:15.017Z,53.44
2019-05-12T06:02:32.083Z,52.31
2019-05-12T06:05:34.642Z,51.50
2019-05-12T06:08:44.554Z,51.22
2019-05-12T06:11:54.197Z,49.51
2019-05-12T06:15:13.648Z,49.08
2019-05-12T06:18:23.932Z,47.80
2019-05-12T06:21:36.352Z,47.50
2019-05-12T06:24:54.863Z,47.77
2019-05-12T06:28:04.111Z,47.17
2019-05-12T06:31:13.776Z,48.01
2019-05-12T06:34:23.873Z,47.41
2019-05-12T06:37:33.850Z,48.43
2019-05-12T06:40:45.410Z,48.48
2019-05-12T06:43:54.201Z,48.59
2019-05-12T06:47:14.351Z,48.90
2019-05-12T06:50:23.768Z,49.51
2019-05-12T06:53:33.651Z,50.29
2019-05-12T06:56:43.541Z,51.28
2019-05-12T07:00:04.570Z,50.72
2019-05-12T07:03:14.271Z,50.90
2019-05-12T07:06:24.739Z,51.48
2019-05-12T07:09:36.644Z,52.02
2019-05-12T07:12:55.975Z,51.31
2019-05-12T07:15:55.691Z,52.02
2019-05-12T07:19:07.741Z,52.15
2019-05-12T07:22:22.084Z,49.95
2019-05-12T07:25:31.282Z,51.56
2019-05-12T07:28:40.121Z,51.58
2019-05-12T07:31:45.565Z,50.83
2019-05-12T07:34:54.516Z,50.68
2019-05-12T07:38:04.730Z,50.82
2019-05-12T07:41:15.015Z,50.64
2019-05-12T07:44:34.222Z,50.44
2019-05-12T07:47:37.738Z,50.06
2019-05-12T07:50:50.270Z,47.67
2019-05-12T07:53:58.979Z,46.67
2019-05-12T07:57:12.010Z,46.96
2019-05-12T08:00:28.782Z,45.33
2019-05-12T08:03:38.462Z,45.21
2019-05-12T08:06:47.121Z,45.25
2019-05-12T08:09:55.766Z,44.56
2019-05-12T08:13:14.947Z,46.65
2019-05-12T08:16:30.207Z,45.27
2019-05-12T08:19:35.242Z,45.75
2019-05-12T08:22:43.949Z,44.67
2019-05-12T08:25:53.992Z,45.29
2019-05-12T08:29:04.223Z,44.67
2019-05-12T08:32:16.035Z,44.83
2019-05-12T08:35:29.324Z,42.75
2019-05-12T08:38:33.786Z,43.49
2019-05-12T08:41:44.397Z,40.85
2019-05-12T08:44:54.239Z,40.68
2019-05-12T08:48:03.824Z,40.84
2019-05-12T08:51:14.528Z,40.59
2019-05-12T08:54:23.371Z,41.24
2019-05-12T08:57:40.544Z,40.62
2019-05-12T09:00:50.103Z,41.63
2019-05-12T09:03:53.429Z,41.09
2019-05-12T09:07:13.881Z,41.08
2019-05-12T09:10:34.390Z,41.71
2019-05-12T09:13:43.495Z,41.92
2019-05-12T09:16:53.646Z,41.11
2019-05-12T09:20:08.146Z,41.39
2019-05-12T09:23:13.645Z,41.51
2019-05-12T09:26:34.385Z,42.03
2019-05-12T09:29:43.552Z,42.50
2019-05-12T09:32:55.967Z,40.26
2019-05-12T09:36:04.286Z,40.17
2019-05-12T09:39:23.529Z,39.96
2019-05-12T09:42:33.388Z,39.31
2019-05-12T09:45:52.641Z,38.50
2019-05-12T09:48:55.050Z,36.30
2019-05-12T09:52:03.667Z,37.18
2019-05-12T09:55:14.725Z,37.43
2019-05-12T09:58:25.733Z,37.78
2019-05-12T10:01:35.314Z,37.93
2019-05-12T10:04:43.833Z,36.97
2019-05-12T10:07:53.610Z,37.56
2019-05-12T10:11:16.447Z,38.44
2019-05-12T10:14:23.540Z,35.75
2019-05-12T10:17:34.015Z,35.84
2019-05-12T10:20:44.132Z,36.30
2019-05-12T10:24:05.060Z,34.60
2019-05-12T10:27:13.868Z,33.94
2019-05-12T10:30:23.317Z,34.88
2019-05-12T10:33:33.677Z,36.22
2019-05-12T10:36:53.788Z,37.19
2019-05-12T10:40:03.751Z,35.18
2019-05-12T10:43:12.452Z,34.90
2019-05-12T10:46:26.760Z,35.19
2019-05-12T10:49:33.599Z,36.03
2019-05-12T10:52:43.880Z,37.56
2019-05-12T10:55:54.052Z,38.62
2019-05-12T10:59:04.281Z,36.41
2019-05-12T11:02:11.247Z,34.27
2019-05-12T11:05:23.200Z,35.85
2019-05-12T11:08:30.537Z,36.69
2019-05-12T11:11:42.622Z,34.45
2019-05-12T11:14:49.696Z,33.98
2019-05-12T11:18:10.582Z,36.02
2019-05-12T11:21:19.113Z,35.91
2019-05-12T11:24:27.737Z,34.92
2019-05-12T11:27:36.426Z,34.34
2019-05-12T11:30:44.983Z,35.26
2019-05-12T11:33:54.103Z,36.49
2019-05-12T11:37:03.456Z,35.54
2019-05-12T11:40:23.909Z,35.07
2019-05-12T11:43:33.789Z,35.62
2019-05-12T11:46:44.131Z,34.48
2019-05-12T11:49:53.674Z,35.62
2019-05-12T11:53:04.430Z,36.80
2019-05-12T11:56:24.306Z,36.00
2019-05-12T11:59:34.130Z,34.99
2019-05-12T12:02:53.083Z,33.36
2019-05-12T12:06:01.459Z,32.29
2019-05-12T12:09:15.509Z,32.19
2019-05-12T12:12:20.536Z,33.31
2019-05-12T12:15:30.304Z,33.10
2019-05-12T12:18:54.565Z,33.21
2019-05-12T12:21:59.562Z,33.27
2019-05-12T12:25:11.064Z,34.55
2019-05-12T12:28:18.611Z,35.16
2019-05-12T12:31:29.756Z,33.68
2019-05-12T12:34:39.105Z,33.68
2019-05-12T12:37:47.757Z,32.42
2019-05-12T12:40:56.557Z,31.20
2019-05-12T12:44:05.314Z,30.03
2019-05-12T12:47:14.086Z,29.58
2019-05-12T12:50:26.485Z,29.13
2019-05-12T12:53:34.395Z,26.54
2019-05-12T12:56:53.921Z,26.39
2019-05-12T13:00:03.819Z,26.61
2019-05-12T13:03:27.721Z,27.03
2019-05-12T13:06:34.598Z,26.31
2019-05-12T13:09:44.120Z,26.96
2019-05-12T13:13:04.323Z,28.33
2019-05-12T13:16:13.361Z,28.55
2019-05-12T13:19:23.771Z,28.15
2019-05-12T13:22:33.717Z,29.10
2019-05-12T13:25:50.433Z,30.55
2019-05-12T13:28:53.588Z,30.64
2019-05-12T13:32:03.434Z,28.76
2019-05-12T13:35:16.540Z,29.41
2019-05-12T13:38:23.765Z,30.70
2019-05-12T13:41:34.213Z,31.29
2019-05-12T13:44:43.632Z,32.13
2019-05-12T13:47:53.379Z,32.97
2019-05-12T13:51:10.403Z,33.42
2019-05-12T13:54:14.384Z,34.29
2019-05-12T13:57:23.651Z,33.01
2019-05-12T14:00:33.639Z,32.90
2019-05-12T14:03:46.277Z,32.86
2019-05-12T14:06:53.292Z,33.84
2019-05-12T14:10:03.641Z,33.99
2019-05-12T14:13:14.084Z,33.82
2019-05-12T14:16:24.775Z,34.22
2019-05-12T14:19:35.557Z,34.25
2019-05-12T14:22:44.728Z,35.18
2019-05-12T14:25:54.386Z,36.76
2019-05-12T14:29:03.951Z,37.11
2019-05-12T14:32:17.484Z,36.38
2019-05-12T14:35:23.280Z,35.81
2019-05-12T14:38:36.419Z,35.98
2019-05-12T14:41:55.210Z,35.63
2019-05-12T14:45:04.716Z,36.92
2019-05-12T14:48:13.833Z,37.19
2019-05-12T14:51:24.573Z,36.30
2019-05-12T14:54:34.310Z,36.34
2019-05-12T14:57:43.073Z,37.01
2019-05-12T15:00:56.435Z,37.04
2019-05-12T15:04:13.288Z,34.83
2019-05-12T15:07:23.667Z,35.87
2019-05-12T15:10:33.784Z,35.90
2019-05-12T15:13:43.684Z,35.13
2019-05-12T15:17:03.707Z,35.47
2019-05-12T15:20:13.769Z,35.74
2019-05-12T15:23:25.875Z,36.06
2019-05-12T15:26:33.148Z,36.23
2019-05-12T15:29:41.742Z,36.88
2019-05-12T15:32:50.274Z,36.99
2019-05-12T15:36:09.141Z,36.94
2019-05-12T15:39:17.747Z,36.34
2019-05-12T15:42:26.355Z,36.37
2019-05-12T15:45:34.951Z,36.24
2019-05-12T15:48:44.603Z,36.06
2019-05-12T15:52:03.750Z,36.10
2019-05-12T15:55:13.738Z,35.92
2019-05-12T15:58:24.552Z,36.90
2019-05-12T16:01:33.458Z,36.75
2019-05-12T16:04:43.078Z,36.23
2019-05-12T16:07:54.028Z,35.12
2019-05-12T16:11:05.007Z,34.70
2019-05-12T16:14:13.024Z,35.47
2019-05-12T16:17:25.026Z,35.78
2019-05-12T16:20:33.433Z,34.72
2019-05-12T16:23:44.542Z,34.36
2019-05-12T16:26:53.215Z,33.57
2019-05-12T16:30:04.563Z,35.03
2019-05-12T16:33:20.485Z,35.63
2019-05-12T16:36:22.560Z,35.52
2019-05-12T16:39:37.013Z,35.55
2019-05-12T16:42:48.145Z,35.85
2019-05-12T16:45:53.619Z,35.53
2019-05-12T16:49:03.358Z,36.12
2019-05-12T16:52:24.254Z,36.99
2019-05-12T16:55:44.834Z,37.07
2019-05-12T16:58:43.385Z,37.43
2019-05-12T17:02:05.528Z,38.30
2019-05-12T17:05:24.817Z,38.43
2019-05-12T17:08:34.414Z,38.67
2019-05-12T17:11:52.451Z,38.26
2019-05-12T17:14:53.556Z,38.38
2019-05-12T17:18:04.427Z,38.35
2019-05-12T17:21:14.356Z,38.16
2019-05-12T17:24:34.431Z,38.12
2019-05-12T17:27:44.771Z,38.50
2019-05-12T17:30:54.334Z,39.24
2019-05-12T17:34:06.369Z,38.61
2019-05-12T17:37:14.637Z,38.58
2019-05-12T17:40:24.325Z,38.61
2019-05-12T17:43:33.838Z,38.91
2019-05-12T17:46:54.081Z,39.41
2019-05-12T17:50:06.773Z,38.92
2019-05-12T17:53:13.812Z,39.86
2019-05-12T17:56:25.283Z,41.23
2019-05-12T17:59:33.919Z,42.37
2019-05-12T18:02:43.902Z,42.82
2019-05-12T18:05:53.473Z,42.84
2019-05-12T18:09:04.026Z,42.59
2019-05-12T18:12:13.852Z,41.58
2019-05-12T18:15:32.203Z,42.21
2019-05-12T18:18:38.011Z,41.05
2019-05-12T18:21:45.089Z,41.40
2019-05-12T18:24:54.301Z,38.85
2019-05-12T18:28:03.781Z,39.76
2019-05-12T18:31:25.189Z,41.85
2019-05-12T18:34:34.006Z,41.56
2019-05-12T18:37:42.853Z,42.08
2019-05-12T18:40:51.393Z,43.08
2019-05-12T18:43:58.998Z,43.82
2019-05-12T18:47:07.538Z,43.48
2019-05-12T18:50:20.632Z,43.44
2019-05-12T18:53:31.535Z,43.00
2019-05-12T18:56:37.143Z,42.93
2019-05-12T18:59:54.332Z,43.38
2019-05-12T19:02:59.625Z,43.44
2019-05-12T19:06:16.371Z,43.17
2019-05-12T19:09:25.135Z,42.86
2019-05-12T19:12:35.666Z,43.17
2019-05-12T19:15:44.182Z,43.50
2019-05-12T19:18:55.402Z,44.11
2019-05-12T19:22:09.082Z,44.44
2019-05-12T19:25:19.161Z,44.79
2019-05-12T19:28:26.750Z,45.19
2019-05-12T19:31:36.683Z,45.72
2019-05-12T19:34:56.015Z,46.24
2019-05-12T19:38:04.597Z,46.30
2019-05-12T19:41:13.967Z,46.64
2019-05-12T19:44:34.284Z,46.88
2019-05-12T19:47:44.291Z,47.27
2019-05-12T19:50:56.965Z,47.52
2019-05-12T19:54:03.710Z,47.86
2019-05-12T19:57:21.650Z,48.82
2019-05-12T20:00:22.473Z,48.89
2019-05-12T20:03:33.370Z,49.49
2019-05-12T20:06:43.817Z,49.86
2019-05-12T20:09:55.842Z,50.00
2019-05-12T20:13:13.638Z,50.66
2019-05-12T20:16:29.742Z,51.35
2019-05-12T20:19:34.089Z,52.04
2019-05-12T20:22:44.134Z,52.10
2019-05-12T20:25:53.518Z,52.65
2019-05-12T20:29:04.601Z,53.30
2019-05-12T20:32:13.961Z,53.58
2019-05-12T20:35:24.497Z,54.23
2019-05-12T20:38:34.410Z,54.36
2019-05-12T20:41:44.300Z,54.69
2019-05-12T20:44:57.990Z,54.91
2019-05-12T20:48:04.111Z,56.03
2019-05-12T20:51:15.316Z,55.89
2019-05-12T20:54:23.905Z,56.27
2019-05-12T20:57:34.543Z,56.67
2019-05-12T21:00:45.420Z,56.93
2019-05-12T21:03:53.188Z,57.35
2019-05-12T21:07:04.392Z,57.98
2019-05-12T21:10:14.398Z,58.32
2019-05-12T21:13:27.366Z,58.59
2019-05-12T21:16:44.920Z,58.70
2019-05-12T21:19:56.835Z,58.98
2019-05-12T21:23:03.483Z,58.98
2019-05-12T21:26:12.018Z,59.48
2019-05-12T21:29:25.541Z,59.35
2019-05-12T21:32:31.017Z,59.69
2019-05-12T21:35:43.141Z,59.97
2019-05-12T21:38:50.063Z,60.11
2019-05-12T21:41:58.712Z,60.43
2019-05-12T21:45:08.552Z,60.96
2019-05-12T21:48:23.610Z,60.96
2019-05-12T21:51:27.614Z,61.65
2019-05-12T21:54:39.566Z,61.87
2019-05-12T21:57:46.636Z,62.10
2019-05-12T22:01:04.235Z,62.33
2019-05-12T22:04:19.809Z,62.42
2019-05-12T22:07:29.502Z,63.07
2019-05-12T22:10:38.906Z,63.11
2019-05-12T22:13:56.201Z,63.06
2019-05-12T22:17:09.123Z,63.09
2019-05-12T22:20:29.133Z,62.99
2019-05-12T22:23:44.564Z,63.30
2019-05-12T22:26:47.951Z,63.40
2019-05-12T22:29:56.651Z,63.79
2019-05-12T22:33:10.427Z,63.79
2019-05-12T22:36:29.801Z,64.02
2019-05-12T22:39:36.405Z,64.53
2019-05-12T22:42:59.365Z,64.83
2019-05-12T22:46:05.605Z,64.86
2019-05-12T22:49:16.895Z,64.74
2019-05-12T22:52:23.877Z,64.70
2019-05-12T22:55:35.798Z,64.69
2019-05-12T22:59:00.159Z,64.64
2019-05-12T23:02:04.446Z,65.55
2019-05-12T23:05:19.049Z,65.36
2019-05-12T23:08:24.641Z,65.45
2019-05-12T23:11:37.686Z,64.79
2019-05-12T23:15:02.692Z,64.66
2019-05-12T23:18:05.020Z,65.64
2019-05-12T23:21:17.588Z,66.04
2019-05-12T23:24:24.397Z,65.75
2019-05-12T23:27:33.440Z,66.33
2019-05-12T23:30:48.428Z,66.39
2019-05-12T23:33:54.504Z,66.53
2019-05-12T23:37:04.011Z,66.57
2019-05-12T23:40:23.573Z,66.71
2019-05-12T23:43:34.097Z,66.74
2019-05-12T23:46:43.768Z,66.48
2019-05-12T23:49:53.196Z,68.19
2019-05-12T23:53:03.779Z,67.85
2019-05-12T23:56:22.224Z,68.35
2019-05-12T23:59:33.265Z,68.38
